createdAt,value
2022-10-13T00:00:28.451Z,4.6
2022-10-13T00:03:28.472Z,4.6
2022-10-13T00:06:28.486Z,4.7
2022-10-13T00:09:28.467Z,4.7
2022-10-13T00:12:28.467Z,4.7
2022-10-13T00:15:28.477Z,4.8
2022-10-13T00:18:28.494Z,4.7
2022-10-13T00:21:28.489Z,4.7
2022-10-13T00:24:28.512Z,4.6
2022-10-13T00:27:28.485Z,4.5
2022-10-13T00:30:28.485Z,4.5
2022-10-13T00:33:28.515Z,4.5
2022-10-13T00:36:28.500Z,4.5
2022-10-13T00:39:28.511Z,4.5
2022-10-13T00:42:28.590Z,4.6
2022-10-13T00:45:28.516Z,4.7
2022-10-13T00:48:28.530Z,4.8
2022-10-13T00:51:28.516Z,4.8
2022-10-13T00:54:28.527Z,4.9
2022-10-13T00:57:28.531Z,4.8
2022-10-13T01:00:28.589Z,4.8
2022-10-13T01:03:28.552Z,4.8
2022-10-13T01:06:28.662Z,4.7
2022-10-13T01:09:28.551Z,4.7
2022-10-13T01:12:28.549Z,4.7
2022-10-13T01:15:28.559Z,4.6
2022-10-13T01:18:28.593Z,4.6
2022-10-13T01:21:28.558Z,4.6
2022-10-13T01:24:28.586Z,4.5
2022-10-13T01:27:28.570Z,4.4
2022-10-13T01:30:28.572Z,4.4
2022-10-13T01:33:28.591Z,4.5
2022-10-13T01:36:28.813Z,4.4
2022-10-13T01:39:28.589Z,4.4
2022-10-13T01:42:28.582Z,4.3
2022-10-13T01:45:28.591Z,4.2
2022-10-13T01:48:28.605Z,4.1
2022-10-13T01:51:28.601Z,4.1
2022-10-13T01:54:28.680Z,4
2022-10-13T01:57:28.616Z,3.9
2022-10-13T02:00:28.666Z,3.9
2022-10-13T02:03:28.630Z,3.9
2022-10-13T02:06:28.637Z,3.9
2022-10-13T02:09:28.632Z,3.9
2022-10-13T02:12:28.718Z,3.9
2022-10-13T02:15:28.640Z,3.9
2022-10-13T02:18:28.654Z,3.9
2022-10-13T02:21:28.651Z,3.9
2022-10-13T02:24:28.648Z,4
2022-10-13T02:27:28.654Z,4.1
2022-10-13T02:30:28.683Z,4
2022-10-13T02:33:28.854Z,4.1
2022-10-13T02:36:28.672Z,4.1
2022-10-13T02:39:28.671Z,4.2
2022-10-13T02:42:28.676Z,4.3
2022-10-13T02:45:28.682Z,4.4
2022-10-13T02:48:28.726Z,4.4
2022-10-13T02:51:28.695Z,4.5
2022-10-13T02:54:28.702Z,4.6
2022-10-13T02:57:28.706Z,4.7
2022-10-13T03:00:28.740Z,4.7
2022-10-13T03:03:28.719Z,4.7
2022-10-13T03:06:28.745Z,4.7
2022-10-13T03:09:28.720Z,4.6
2022-10-13T03:12:28.725Z,4.6
2022-10-13T03:15:28.727Z,4.5
2022-10-13T03:18:28.747Z,4.4
2022-10-13T03:21:28.740Z,4.4
2022-10-13T03:24:28.762Z,4.5
2022-10-13T03:27:28.750Z,4.6
2022-10-13T03:30:28.756Z,4.7
2022-10-13T03:33:28.782Z,4.7
2022-10-13T03:36:28.765Z,4.6
2022-10-13T03:39:28.769Z,4.6
2022-10-13T03:42:28.814Z,4.7
2022-10-13T03:45:28.782Z,4.7
2022-10-13T03:48:28.796Z,4.8
2022-10-13T03:51:28.787Z,4.8
2022-10-13T03:54:28.790Z,4.8
2022-10-13T03:57:28.803Z,4.8
2022-10-13T04:00:28.841Z,4.8
2022-10-13T04:03:28.925Z,4.8
2022-10-13T04:06:28.817Z,4.9
2022-10-13T04:09:28.817Z,4.9
2022-10-13T04:12:28.823Z,4.9
2022-10-13T04:15:28.827Z,4.9
2022-10-13T04:18:28.872Z,4.9
2022-10-13T04:21:28.849Z,4.9
2022-10-13T04:24:28.852Z,5
2022-10-13T04:27:28.860Z,5
2022-10-13T04:30:28.862Z,5
2022-10-13T04:33:28.882Z,5.1
2022-10-13T04:36:28.898Z,5.1
2022-10-13T04:39:28.881Z,5.2
2022-10-13T04:42:28.886Z,5.2
2022-10-13T04:45:28.892Z,5.2
2022-10-13T04:48:28.906Z,5.2
2022-10-13T04:51:28.903Z,5.2
2022-10-13T04:54:28.935Z,5.2
2022-10-13T04:57:28.915Z,5.2
2022-10-13T05:00:28.979Z,5.2
2022-10-13T05:03:28.954Z,5.3
2022-10-13T05:06:28.933Z,5.4
2022-10-13T05:09:28.949Z,5.4
2022-10-13T05:12:28.968Z,5.5
2022-10-13T05:15:28.951Z,5.5
2022-10-13T05:18:28.972Z,5.5
2022-10-13T05:21:28.960Z,5.5
2022-10-13T05:24:28.970Z,5.5
2022-10-13T05:27:28.967Z,5.5
2022-10-13T05:30:28.998Z,5.5
2022-10-13T05:33:28.998Z,5.6
2022-10-13T05:36:28.998Z,5.6
2022-10-13T05:39:28.998Z,5.6
2022-10-13T05:42:29.006Z,5.7
2022-10-13T05:45:29.015Z,5.8
2022-10-13T05:48:29.053Z,6
2022-10-13T05:51:29.023Z,6.1
2022-10-13T05:54:29.039Z,6.3
2022-10-13T05:57:29.040Z,6.4
2022-10-13T06:00:29.053Z,6.6
2022-10-13T06:03:29.086Z,6.6
2022-10-13T06:06:31.398Z,6.8
2022-10-13T06:09:29.070Z,6.8
2022-10-13T06:12:29.078Z,7
2022-10-13T06:15:29.080Z,7
2022-10-13T06:18:29.095Z,7.1
2022-10-13T06:21:29.092Z,7.2
2022-10-13T06:24:29.127Z,7.3
2022-10-13T06:27:29.111Z,7.5
2022-10-13T06:30:29.117Z,7.7
2022-10-13T06:33:29.169Z,7.9
2022-10-13T06:36:29.132Z,8
2022-10-13T06:39:29.138Z,8.1
2022-10-13T06:42:29.191Z,8.2
2022-10-13T06:45:29.151Z,8.2
2022-10-13T06:48:29.211Z,8.2
2022-10-13T06:51:29.159Z,8.3
2022-10-13T06:54:29.163Z,8.4
2022-10-13T06:57:29.168Z,8.6
2022-10-13T07:00:29.428Z,8.8
2022-10-13T07:03:29.197Z,9
2022-10-13T07:06:29.188Z,9.1
2022-10-13T07:09:29.189Z,9.3
2022-10-13T07:12:29.198Z,9.4
2022-10-13T07:15:29.205Z,9.5
2022-10-13T07:18:29.260Z,9.6
2022-10-13T07:21:29.214Z,9.7
2022-10-13T07:24:29.232Z,9.8
2022-10-13T07:27:29.232Z,9.8
2022-10-13T07:30:29.235Z,9.9
2022-10-13T07:33:29.252Z,10
2022-10-13T07:36:29.309Z,10.1
2022-10-13T07:39:29.258Z,10.1
2022-10-13T07:42:29.326Z,10.1
2022-10-13T07:45:29.262Z,10.1
2022-10-13T07:48:29.264Z,10.1
2022-10-13T07:51:29.262Z,10.1
2022-10-13T07:54:29.284Z,10.1
2022-10-13T07:57:29.273Z,10.2
2022-10-13T08:00:29.277Z,10.2
2022-10-13T08:03:29.368Z,10.3
2022-10-13T08:06:29.311Z,10.4
2022-10-13T08:09:29.283Z,10.5
2022-10-13T08:12:29.306Z,10.6
2022-10-13T08:15:29.294Z,10.8
2022-10-13T08:18:29.309Z,10.8
2022-10-13T08:24:29.323Z,10.7
2022-10-13T08:27:42.165Z,10.7
2022-10-13T08:30:29.395Z,10.7
2022-10-13T08:33:29.315Z,10.6
2022-10-13T08:36:29.314Z,10.5
2022-10-13T08:39:29.312Z,10.6
2022-10-13T08:42:29.309Z,10.7
2022-10-13T08:45:40.703Z,10.8
2022-10-13T08:48:29.370Z,10.9
2022-10-13T08:51:29.319Z,10.9
2022-10-13T08:54:29.319Z,11
2022-10-13T08:57:29.326Z,11.1
2022-10-13T09:00:29.328Z,11.2
2022-10-13T09:03:29.356Z,11.2
2022-10-13T09:06:29.361Z,11.2
2022-10-13T09:09:29.338Z,11.2
2022-10-13T09:12:29.353Z,11.3
2022-10-13T09:15:29.358Z,11.3
2022-10-13T09:18:29.378Z,11.4
2022-10-13T09:21:29.377Z,11.5
2022-10-13T09:24:29.401Z,11.3
2022-10-13T09:27:29.388Z,11.5
2022-10-13T09:30:29.403Z,11.6
2022-10-13T09:33:29.420Z,11.4
2022-10-13T09:36:29.418Z,11.4
2022-10-13T09:39:29.423Z,11.4
2022-10-13T09:42:29.540Z,11.5
2022-10-13T09:45:29.442Z,11.6
2022-10-13T09:48:29.456Z,11.6
2022-10-13T09:51:29.471Z,11.6
2022-10-13T09:54:29.467Z,11.6
2022-10-13T09:57:29.479Z,11.5
2022-10-13T10:00:29.557Z,11.5
2022-10-13T10:03:29.499Z,11.6
2022-10-13T10:06:29.509Z,11.7
2022-10-13T10:09:29.512Z,11.5
2022-10-13T10:12:29.514Z,11.2
2022-10-13T10:15:29.539Z,11.1
2022-10-13T10:18:29.580Z,11
2022-10-13T10:21:29.558Z,10.9
2022-10-13T10:24:29.561Z,10.9
2022-10-13T10:27:29.570Z,10.9
2022-10-13T10:30:29.578Z,10.8
2022-10-13T10:33:29.598Z,10.8
2022-10-13T10:36:29.620Z,10.8
2022-10-13T10:39:29.603Z,11.1
2022-10-13T10:42:29.699Z,11.3
2022-10-13T10:45:29.624Z,11.4
2022-10-13T10:48:29.638Z,11.6
2022-10-13T10:51:29.644Z,11.6
2022-10-13T10:54:29.677Z,11.8
2022-10-13T10:57:29.667Z,11.6
2022-10-13T11:00:29.674Z,11.6
2022-10-13T11:03:29.721Z,11.6
2022-10-13T11:06:29.698Z,12
2022-10-13T11:09:29.710Z,11.9
2022-10-13T11:12:29.740Z,11.9
2022-10-13T11:15:29.727Z,11.6
2022-10-13T11:18:29.746Z,11.3
2022-10-13T11:21:29.740Z,11.3
2022-10-13T11:24:29.758Z,11.2
2022-10-13T11:27:29.763Z,11.2
2022-10-13T11:33:29.795Z,11.3
2022-10-13T11:36:29.796Z,11.5
2022-10-13T11:42:29.811Z,11.3
2022-10-13T11:45:29.831Z,11.3
2022-10-13T11:48:29.892Z,11.3
2022-10-13T11:51:29.849Z,11.1
2022-10-13T11:54:29.853Z,11.3
2022-10-13T11:57:29.868Z,11.3
2022-10-13T12:00:29.882Z,11.3
2022-10-13T12:03:29.912Z,11.2
2022-10-13T12:06:29.936Z,11
2022-10-13T12:09:29.924Z,10.8
2022-10-13T12:12:29.927Z,10.8
2022-10-13T12:15:29.944Z,10.7
2022-10-13T12:18:29.961Z,10.8
2022-10-13T12:21:29.973Z,10.7
2022-10-13T12:24:30.102Z,10.7
2022-10-13T12:27:29.981Z,10.7
2022-10-13T12:30:29.996Z,10.7
2022-10-13T12:33:30.022Z,11
2022-10-13T12:36:30.496Z,10.9
2022-10-13T12:39:30.073Z,10.8
2022-10-13T12:42:30.276Z,10.7
2022-10-13T12:45:30.060Z,10.5
2022-10-13T12:48:30.095Z,10.7
2022-10-13T12:51:30.086Z,10.7
2022-10-13T12:54:30.106Z,10.7
2022-10-13T12:57:30.109Z,10.8
2022-10-13T13:00:30.183Z,10.8
2022-10-13T13:03:30.155Z,11
2022-10-13T13:06:30.137Z,10.9
2022-10-13T13:09:30.151Z,10.8
2022-10-13T13:12:30.159Z,10.8
2022-10-13T13:15:30.171Z,10.7
2022-10-13T13:18:30.219Z,10.6
2022-10-13T13:21:30.191Z,10.7
2022-10-13T13:24:39.681Z,10.4
2022-10-13T13:27:30.229Z,10.6
2022-10-13T13:30:30.231Z,10.7
2022-10-13T13:33:30.255Z,10.7
2022-10-13T13:36:30.270Z,10.7
2022-10-13T13:39:30.268Z,10.8
2022-10-13T13:42:30.269Z,10.8
2022-10-13T13:45:30.287Z,10.8
2022-10-13T13:48:30.314Z,10.8
2022-10-13T13:51:30.310Z,10.7
2022-10-13T13:54:30.344Z,10.6
2022-10-13T13:57:30.334Z,10.5
2022-10-13T14:00:30.339Z,10.4
2022-10-13T14:03:30.359Z,10.4
2022-10-13T14:06:30.355Z,10.4
2022-10-13T14:09:30.361Z,10.3
2022-10-13T14:12:30.386Z,10.3
2022-10-13T14:15:30.367Z,10.4
2022-10-13T14:18:30.379Z,10.5
2022-10-13T14:21:30.370Z,10.5
2022-10-13T14:24:30.377Z,10.5
2022-10-13T14:27:30.377Z,10.5
2022-10-13T14:30:30.411Z,10.5
2022-10-13T14:33:30.404Z,10.5
2022-10-13T14:36:30.386Z,10.5
2022-10-13T14:39:30.384Z,10.6
2022-10-13T14:42:30.392Z,10.6
2022-10-13T14:45:30.389Z,10.5
2022-10-13T14:48:30.425Z,10.5
2022-10-13T14:51:30.399Z,10.6
2022-10-13T14:54:30.396Z,10.6
2022-10-13T14:57:30.407Z,10.7
2022-10-13T15:00:30.401Z,10.7
2022-10-13T15:03:30.487Z,10.7
2022-10-13T15:06:30.432Z,10.7
2022-10-13T15:09:38.573Z,10.7
2022-10-13T15:12:30.414Z,10.7
2022-10-13T15:15:30.418Z,10.7
2022-10-13T15:18:30.429Z,10.6
2022-10-13T15:21:30.421Z,10.6
2022-10-13T15:24:30.446Z,10.7
2022-10-13T15:27:30.427Z,10.7
2022-10-13T15:30:30.428Z,10.7
2022-10-13T15:33:30.446Z,10.7
2022-10-13T15:36:30.429Z,10.6
2022-10-13T15:39:30.427Z,10.5
2022-10-13T15:42:30.452Z,10.5
2022-10-13T15:45:30.433Z,10.5
2022-10-13T15:48:30.443Z,10.6
2022-10-13T15:51:30.433Z,10.5
2022-10-13T15:54:30.435Z,10.5
2022-10-13T15:57:30.434Z,10.4
2022-10-13T16:00:30.492Z,10.5
2022-10-13T16:03:30.449Z,10.4
2022-10-13T16:06:30.495Z,10.4
2022-10-13T16:09:30.448Z,10.4
2022-10-13T16:12:30.445Z,10.3
2022-10-13T16:15:30.439Z,10.3
2022-10-13T16:18:30.484Z,10.3
2022-10-13T16:21:30.445Z,10.3
2022-10-13T16:24:30.448Z,10.3
2022-10-13T16:27:30.448Z,10.2
2022-10-13T16:30:30.550Z,10.2
2022-10-13T16:33:30.473Z,10.2
2022-10-13T16:36:30.479Z,10.1
2022-10-13T16:39:30.456Z,10.1
2022-10-13T16:42:30.455Z,10
2022-10-13T16:45:41.595Z,9.9
2022-10-13T16:48:30.468Z,9.9
2022-10-13T16:51:30.463Z,9.8
2022-10-13T16:54:30.489Z,9.8
2022-10-13T16:57:30.466Z,9.7
2022-10-13T17:00:30.538Z,9.7
2022-10-13T17:03:30.484Z,9.7
2022-10-13T17:06:30.478Z,9.7
2022-10-13T17:09:30.472Z,9.7
2022-10-13T17:12:30.502Z,9.7
2022-10-13T17:15:30.475Z,9.7
2022-10-13T17:18:30.483Z,9.7
2022-10-13T17:21:30.482Z,9.7
2022-10-13T17:24:30.483Z,9.7
2022-10-13T17:27:30.482Z,9.7
2022-10-13T17:30:30.505Z,9.6
2022-10-13T17:33:30.501Z,9.6
2022-10-13T17:36:30.488Z,9.6
2022-10-13T17:39:30.487Z,9.6
2022-10-13T17:42:30.492Z,9.6
2022-10-13T17:45:30.501Z,9.6
2022-10-13T17:48:30.532Z,9.6
2022-10-13T17:51:30.500Z,9.6
2022-10-13T17:54:30.504Z,9.6
2022-10-13T17:57:30.504Z,9.6
2022-10-13T18:00:32.130Z,9.6
2022-10-13T18:03:30.525Z,9.6
2022-10-13T18:06:35.293Z,9.6
2022-10-13T18:09:30.516Z,9.6
2022-10-13T18:12:30.514Z,9.6
2022-10-13T18:15:30.521Z,9.7
2022-10-13T18:18:30.537Z,9.7
2022-10-13T18:21:30.522Z,9.7
2022-10-13T18:24:30.546Z,9.7
2022-10-13T18:27:30.520Z,9.7
2022-10-13T18:30:30.526Z,9.7
2022-10-13T18:33:30.548Z,9.7
2022-10-13T18:36:30.535Z,9.7
2022-10-13T18:39:30.533Z,9.7
2022-10-13T18:42:30.569Z,9.7
2022-10-13T18:45:30.539Z,9.8
2022-10-13T18:48:30.554Z,9.8
2022-10-13T18:51:35.561Z,9.8
2022-10-13T18:54:30.546Z,9.7
2022-10-13T18:57:30.554Z,9.8
2022-10-13T19:00:30.608Z,9.8
2022-10-13T19:03:30.566Z,9.8
2022-10-13T19:06:30.560Z,9.8
2022-10-13T19:09:30.580Z,9.8
2022-10-13T19:12:30.568Z,9.8
2022-10-13T19:15:30.563Z,9.8
2022-10-13T19:18:30.597Z,9.8
2022-10-13T19:21:30.572Z,9.8
2022-10-13T19:24:30.574Z,9.7
2022-10-13T19:27:30.575Z,9.7
2022-10-13T19:30:30.582Z,9.8
2022-10-13T19:33:30.598Z,9.8
2022-10-13T19:36:30.605Z,9.8
2022-10-13T19:39:30.586Z,9.8
2022-10-13T19:42:30.588Z,9.8
2022-10-13T19:45:30.587Z,9.8
2022-10-13T19:48:30.598Z,9.8
2022-10-13T19:51:30.589Z,9.8
2022-10-13T19:54:33.898Z,9.8
2022-10-13T19:57:30.598Z,9.7
2022-10-13T20:00:30.608Z,9.7
2022-10-13T20:03:30.612Z,9.7
2022-10-13T20:06:30.606Z,9.7
2022-10-13T20:09:30.614Z,9.7
2022-10-13T20:12:30.640Z,9.7
2022-10-13T20:15:30.628Z,9.7
2022-10-13T20:18:30.632Z,9.7
2022-10-13T20:21:30.658Z,9.7
2022-10-13T20:24:30.637Z,9.7
2022-10-13T20:27:30.640Z,9.7
2022-10-13T20:30:30.667Z,9.8
2022-10-13T20:33:30.858Z,9.8
2022-10-13T20:36:33.652Z,9.8
2022-10-13T20:39:30.657Z,9.8
2022-10-13T20:42:30.656Z,9.8
2022-10-13T20:45:30.658Z,9.7
2022-10-13T20:48:40.685Z,9.7
2022-10-13T20:51:30.666Z,9.7
2022-10-13T20:54:30.677Z,9.7
2022-10-13T20:57:30.672Z,9.7
2022-10-13T21:00:30.724Z,9.6
2022-10-13T21:03:30.689Z,9.6
2022-10-13T21:06:30.704Z,9.6
2022-10-13T21:09:30.685Z,9.5
2022-10-13T21:12:30.695Z,9.5
2022-10-13T21:15:30.691Z,9.6
2022-10-13T21:18:30.704Z,9.6
2022-10-13T21:21:30.702Z,9.6
2022-10-13T21:24:30.723Z,9.6
2022-10-13T21:27:30.714Z,9.6
2022-10-13T21:30:30.716Z,9.6
2022-10-13T21:33:32.609Z,9.6
2022-10-13T21:36:30.720Z,9.6
2022-10-13T21:39:30.725Z,9.6
2022-10-13T21:42:30.752Z,9.6
2022-10-13T21:45:30.733Z,9.6
2022-10-13T21:48:30.746Z,9.6
2022-10-13T21:51:30.744Z,9.6
2022-10-13T21:54:30.749Z,9.6
2022-10-13T21:57:30.763Z,9.6
2022-10-13T22:00:30.829Z,9.6
2022-10-13T22:03:30.765Z,9.6
2022-10-13T22:06:30.761Z,9.7
2022-10-13T22:09:30.767Z,9.7
2022-10-13T22:12:30.768Z,9.7
2022-10-13T22:15:30.770Z,9.7
2022-10-13T22:18:30.808Z,9.7
2022-10-13T22:21:30.784Z,9.8
2022-10-13T22:24:30.784Z,9.8
2022-10-13T22:27:30.784Z,9.8
2022-10-13T22:30:30.795Z,9.8
2022-10-13T22:33:30.815Z,9.8
2022-10-13T22:36:30.827Z,9.8
2022-10-13T22:39:30.805Z,9.8
2022-10-13T22:42:30.802Z,9.9
2022-10-13T22:45:30.808Z,9.9
2022-10-13T22:48:30.819Z,9.9
2022-10-13T22:51:30.818Z,9.9
2022-10-13T22:54:30.838Z,9.9
2022-10-13T22:57:30.812Z,9.9
2022-10-13T23:00:30.810Z,10
2022-10-13T23:03:30.870Z,9.9
2022-10-13T23:06:30.819Z,9.9
2022-10-13T23:09:30.814Z,10
2022-10-13T23:12:30.838Z,9.9
2022-10-13T23:15:30.811Z,9.9
2022-10-13T23:18:30.831Z,10
2022-10-13T23:21:30.810Z,9.9
2022-10-13T23:24:30.812Z,9.9
2022-10-13T23:27:30.818Z,10
2022-10-13T23:30:30.836Z,10
2022-10-13T23:33:30.994Z,10
2022-10-13T23:36:30.811Z,9.9
2022-10-13T23:39:30.815Z,9.9
2022-10-13T23:42:30.819Z,9.9
2022-10-13T23:45:30.824Z,9.9
2022-10-13T23:48:30.871Z,9.9
2022-10-13T23:51:30.828Z,9.9
2022-10-13T23:54:30.839Z,9.8
2022-10-13T23:57:30.842Z,9.8
